LKMTLKTB

Guest
Details From LKMT - Ostrava Mosnov
To LKTB - Turany
Flight Number -
Tags decoded
Created
Modified
Stats Distance 66 nm / 123 km
Max Altitude 0 ft / 0 m
Waypoints 3
Social Downloads 5
Likes 0
Share VATSIM

Download

Looking for another format? Having issues loading an existing format? Contact us
Advertisement - Login to hide

Notes

Requested: LKMT HLV LKTB

Route

LKMT HLV LKTB

ID Type Via Altitude Latitude Longitude Leg Dist Tot Dist Heading (true) Name
O LKMT APT - 0 ft / 0 m 49.69622˚ 18.11085˚ - 0 nm - Ostrava Mosnov
HLV NDB - 0 ft / 0 m 49.32285˚ 17.52840˚ 31 nm 31 nm 226° / 225° HOLESOV NDB
O LKTB APT - 0 ft / 0 m 49.15102˚ 16.69317˚ 34 nm 66 nm 253° / 252° Turany

Altitude Profile

Advertisement - Login to hide

LKMT

Details ICAO LKMT (OSR)
Name Ostrava Mosnov
Region Czech Republic
Timezone Europe/Prague (UTC+2.0)
Stats Elevation 843 ft / 257 m (AMSL)
Location 49.696217° 18.110855°
Runways 1
Magnetic Variation 4.817° E

METAR

LKMT 240430Z 02005KT 5000 BR NSC 14/14 Q1021 BECMG 7000 NSW

Decode

TAF

TAF LKMT 232300Z 2400/2506 04008KT CAVOK TEMPO 2405/2421 04013G26KT PROB40 TEMPO 2412/2418 8000 SHRA SCT025TCU

Decode

Departure Runways

ID Width Length Bearing (true) Bearing (mag) Surface Threshold Offset Overrun Length
04 207 ft / 63 m 11,532 ft / 3,515 m 46.29° 41.47° Concrete 0 ft / 0 m 52 ft / 16 m
22 207 ft / 63 m 11,532 ft / 3,515 m 226.31° 221.49° Concrete 0 ft / 0 m 49 ft / 15 m

LKTB

Details ICAO LKTB (BRQ)
Name Turany
Region Czech Republic
Timezone Europe/Prague (UTC+2.0)
Stats Elevation 777 ft / 237 m (AMSL)
Location 49.151016° 16.693171°
Runways 2
Magnetic Variation 4.431° E

METAR

LKTB 240430Z 07004KT 040V100 CAVOK 17/14 Q1020 NOSIG

Decode

TAF

TAF LKTB 232300Z 2400/2506 04008KT CAVOK TEMPO 2400/2403 7000 SHRA SCT035TCU TEMPO 2406/2418 10013G26KT PROB30 TEMPO 2411/2422 6000 TSRA SCT025CB PROB30 TEMPO 2422/2506 8000 SHRA FEW035TCU

Decode

Destination Runways

ID Width Length Bearing (true) Bearing (mag) Surface Threshold Offset Overrun Length
09 98 ft / 30 m 3,272 ft / 997 m 97.50° 93.07° Grass 0 ft / 0 m 0 ft / 0 m
10 197 ft / 60 m 8,674 ft / 2,644 m 97.52° 93.09° Concrete 0 ft / 0 m 0 ft / 0 m
27 98 ft / 30 m 3,272 ft / 997 m 277.51° 273.08° Grass 0 ft / 0 m 0 ft / 0 m
28 197 ft / 60 m 8,674 ft / 2,644 m 277.55° 273.12° Concrete 0 ft / 0 m 0 ft / 0 m

Approach Navaids

Runway Type Ident Frequency Range Bearing (true) Bearing (mag) Slope Elevation
28 Localiser BO 111.50 MHz 18 nm / 33 km 277.51° 273.08° - 771 ft / 235 m (AMSL)
28 Glidescope BO 111.50 MHz 10 nm / 19 km 277.53° 273.10° 3.00° 771 ft / 235 m (AMSL)
28 DME BO 111.50 MHz 18 nm / 33 km - - - 785 ft / 239 m (AMSL)

Popular Alternatives